createdAt,value
2022-09-07T00:00:51.253Z,1.10
2022-09-07T00:03:19.769Z,1.23
2022-09-07T00:05:49.862Z,0.90
2022-09-07T00:08:19.844Z,1.30
2022-09-07T00:10:53.969Z,1.20
2022-09-07T00:13:22.388Z,1.40
2022-09-07T00:15:52.187Z,1.58
2022-09-07T00:18:20.260Z,1.40
2022-09-07T00:20:48.179Z,1.45
2022-09-07T00:23:16.056Z,1.60
2022-09-07T00:25:44.182Z,1.17
2022-09-07T00:28:12.143Z,1.45
2022-09-07T00:30:42.843Z,1.30
2022-09-07T00:33:12.407Z,1.23
2022-09-07T00:35:43.767Z,1.15
2022-09-07T00:38:11.662Z,1.10
2022-09-07T00:40:39.693Z,1.00
2022-09-07T00:43:08.298Z,0.93
2022-09-07T00:45:36.189Z,1.35
2022-09-07T00:48:08.658Z,1.30
2022-09-07T00:50:41.849Z,1.35
2022-09-07T00:53:16.906Z,1.00
2022-09-07T00:55:46.534Z,1.08
2022-09-07T00:58:14.701Z,1.20
2022-09-07T01:00:43.159Z,1.20
2022-09-07T01:03:12.315Z,1.23
2022-09-07T01:05:45.219Z,1.42
2022-09-07T01:08:14.489Z,1.50
2022-09-07T01:10:42.466Z,1.27
2022-09-07T01:13:10.649Z,1.48
2022-09-07T01:15:47.406Z,1.47
2022-09-07T01:18:27.540Z,1.40
2022-09-07T01:21:21.943Z,1.55
2022-09-07T01:24:28.444Z,1.70
2022-09-07T01:27:34.790Z,1.70
2022-09-07T01:30:06.722Z,1.45
2022-09-07T01:32:44.988Z,1.50
2022-09-07T01:35:18.788Z,1.80
2022-09-07T01:37:57.036Z,1.42
2022-09-07T01:40:33.994Z,1.25
2022-09-07T01:43:08.280Z,1.23
2022-09-07T01:45:40.033Z,1.40
2022-09-07T01:48:12.008Z,1.30
2022-09-07T01:50:45.896Z,1.50
2022-09-07T01:53:18.406Z,1.52
2022-09-07T01:55:48.915Z,1.40
2022-09-07T01:58:21.896Z,1.58
2022-09-07T02:00:55.097Z,1.50
2022-09-07T02:03:27.601Z,1.52
2022-09-07T02:06:01.218Z,1.33
2022-09-07T02:08:33.236Z,1.60
2022-09-07T02:11:05.534Z,1.27
2022-09-07T02:13:38.633Z,1.35
2022-09-07T02:16:11.425Z,1.27
2022-09-07T02:18:45.777Z,0.90
2022-09-07T02:21:16.699Z,1.30
2022-09-07T02:23:50.113Z,1.40
2022-09-07T02:26:24.885Z,1.40
2022-09-07T02:28:54.274Z,1.45
2022-09-07T02:31:22.353Z,1.40
2022-09-07T02:33:50.566Z,1.35
2022-09-07T02:36:22.527Z,1.52
2022-09-07T02:38:50.544Z,1.48
2022-09-07T02:41:30.823Z,1.33
2022-09-07T02:44:00.944Z,1.42
2022-09-07T02:46:45.201Z,1.50
2022-09-07T02:49:24.479Z,1.42
2022-09-07T02:52:02.880Z,1.63
2022-09-07T02:54:44.770Z,1.30
2022-09-07T02:57:23.631Z,1.35
2022-09-07T03:00:05.518Z,1.30
2022-09-07T03:02:40.695Z,1.08
2022-09-07T03:05:18.097Z,1.23
2022-09-07T03:07:52.478Z,1.20
2022-09-07T03:10:20.718Z,1.08
2022-09-07T03:12:50.219Z,1.70
2022-09-07T03:15:22.826Z,1.38
2022-09-07T03:17:50.818Z,1.25
2022-09-07T03:20:19.770Z,1.30
2022-09-07T03:22:50.154Z,1.30
2022-09-07T03:25:18.497Z,1.65
2022-09-07T03:27:46.384Z,1.70
2022-09-07T03:30:15.283Z,1.52
2022-09-07T03:32:44.501Z,1.40
2022-09-07T03:35:14.334Z,1.33
2022-09-07T03:37:42.874Z,1.30
2022-09-07T03:40:13.026Z,1.13
2022-09-07T03:42:41.610Z,1.30
2022-09-07T03:45:11.340Z,1.17
2022-09-07T03:47:39.926Z,1.08
2022-09-07T03:50:09.900Z,1.50
2022-09-07T03:52:38.492Z,1.20
2022-09-07T03:55:07.105Z,1.00
2022-09-07T03:57:35.136Z,1.20
2022-09-07T04:00:03.571Z,1.27
2022-09-07T04:02:40.395Z,1.30
2022-09-07T04:05:10.332Z,1.10
2022-09-07T04:07:38.219Z,1.25
2022-09-07T04:10:06.771Z,1.13
2022-09-07T04:12:34.696Z,1.15
2022-09-07T04:15:02.592Z,1.20
2022-09-07T04:17:30.479Z,1.42
2022-09-07T04:19:58.385Z,1.27
2022-09-07T04:22:27.639Z,1.30
2022-09-07T04:24:55.487Z,1.40
2022-09-07T04:27:23.379Z,1.23
2022-09-07T04:29:51.281Z,1.10
2022-09-07T04:32:19.223Z,1.20
2022-09-07T04:34:47.122Z,1.20
2022-09-07T04:37:15.023Z,1.38
2022-09-07T04:39:47.152Z,1.17
2022-09-07T04:42:15.062Z,1.10
2022-09-07T04:44:42.943Z,1.27
2022-09-07T04:47:10.884Z,1.30
2022-09-07T04:49:38.926Z,1.20
2022-09-07T04:52:06.892Z,1.25
2022-09-07T04:54:34.820Z,1.17
2022-09-07T04:57:04.085Z,1.40
2022-09-07T04:59:31.980Z,1.20
2022-09-07T05:02:00.421Z,1.20
2022-09-07T05:04:28.340Z,1.33
2022-09-07T05:06:56.287Z,1.40
2022-09-07T05:09:24.192Z,1.88
2022-09-07T05:11:52.101Z,1.70
2022-09-07T05:14:21.531Z,1.55
2022-09-07T05:16:49.591Z,1.40
2022-09-07T05:19:17.540Z,1.10
2022-09-07T05:21:45.414Z,1.25
2022-09-07T05:24:13.347Z,1.42
2022-09-07T05:26:41.270Z,1.10
2022-09-07T05:31:58.776Z,1.10
2022-09-07T05:36:59.875Z,1.20
2022-09-07T05:39:28.226Z,1.23
2022-09-07T05:41:56.819Z,1.30
2022-09-07T05:47:14.693Z,1.10
2022-09-07T05:49:42.617Z,1.27
2022-09-07T05:52:10.957Z,1.20
2022-09-07T05:54:38.893Z,1.23
2022-09-07T05:57:07.280Z,1.40
2022-09-07T05:59:35.649Z,1.10
2022-09-07T06:02:03.669Z,1.23
2022-09-07T06:04:33.445Z,1.30
2022-09-07T06:12:37.291Z,1.20
2022-09-07T06:15:05.938Z,1.45
2022-09-07T06:17:33.981Z,1.00
2022-09-07T06:20:03.829Z,1.52
2022-09-07T06:22:31.781Z,1.50
2022-09-07T06:25:00.156Z,1.40
2022-09-07T06:27:28.386Z,1.30
2022-09-07T06:29:56.406Z,0.90
2022-09-07T06:35:10.661Z,1.30
2022-09-07T06:37:38.595Z,1.38
2022-09-07T06:40:07.851Z,1.50
2022-09-07T06:42:35.766Z,1.83
2022-09-07T06:45:04.541Z,1.50
2022-09-07T06:47:32.435Z,1.50
2022-09-07T06:50:00.391Z,1.40
2022-09-07T06:52:29.785Z,1.35
2022-09-07T06:57:30.496Z,1.40
2022-09-07T06:59:58.367Z,1.38
2022-09-07T07:02:26.230Z,1.33
2022-09-07T07:04:54.133Z,1.48
2022-09-07T07:07:22.006Z,2.05
2022-09-07T07:09:51.314Z,1.85
2022-09-07T07:14:46.019Z,1.30
2022-09-07T07:17:14.035Z,1.55
2022-09-07T07:19:41.942Z,1.55
2022-09-07T07:24:59.227Z,1.20
2022-09-07T07:27:28.701Z,1.08
2022-09-07T07:29:56.584Z,1.20
2022-09-07T07:32:24.614Z,1.38
2022-09-07T07:34:52.484Z,1.30
2022-09-07T07:37:21.990Z,1.20
2022-09-07T07:42:42.876Z,1.20
2022-09-07T07:47:59.904Z,1.10
2022-09-07T07:50:31.787Z,1.30
2022-09-07T07:55:48.740Z,1.50
2022-09-07T07:58:18.227Z,1.85
2022-09-07T08:01:01.572Z,2.20
2022-09-07T08:03:29.749Z,1.50
2022-09-07T08:05:57.838Z,1.60
2022-09-07T08:08:26.053Z,1.38
2022-09-07T08:10:53.943Z,1.77
2022-09-07T08:13:23.275Z,1.60
2022-09-07T08:15:51.240Z,1.40
2022-09-07T08:18:19.328Z,1.60
2022-09-07T08:20:47.113Z,2.15
2022-09-07T08:23:15.369Z,1.40
2022-09-07T08:25:51.201Z,1.63
2022-09-07T08:28:18.991Z,1.50
2022-09-07T08:30:48.623Z,1.80
2022-09-07T08:33:16.911Z,1.60
2022-09-07T08:35:54.641Z,1.77
2022-09-07T08:38:22.362Z,1.95
2022-09-07T08:40:50.594Z,1.98
2022-09-07T08:43:29.526Z,2.13
2022-09-07T08:46:05.141Z,2.00
2022-09-07T08:48:35.225Z,1.95
2022-09-07T08:51:10.539Z,2.13
2022-09-07T08:53:45.853Z,2.00
2022-09-07T08:56:20.081Z,2.20
2022-09-07T08:58:50.181Z,2.05
2022-09-07T09:01:37.450Z,2.20
2022-09-07T09:04:16.580Z,2.00
2022-09-07T09:06:54.790Z,2.20
2022-09-07T09:09:34.531Z,2.20
2022-09-07T09:12:12.123Z,2.13
2022-09-07T09:14:53.921Z,2.20
2022-09-07T09:17:30.525Z,2.15
2022-09-07T09:20:08.049Z,2.53
2022-09-07T09:22:36.205Z,2.20
2022-09-07T09:25:15.601Z,2.17
2022-09-07T09:27:43.528Z,2.15
2022-09-07T09:30:14.969Z,2.15
2022-09-07T09:32:45.891Z,2.40
2022-09-07T09:35:17.004Z,2.10
2022-09-07T09:37:45.332Z,2.65
2022-09-07T09:40:22.393Z,2.70
2022-09-07T09:43:00.084Z,2.22
2022-09-07T09:45:30.588Z,2.70
2022-09-07T09:48:02.554Z,2.85
2022-09-07T09:53:27.058Z,2.30
2022-09-07T09:55:55.627Z,2.03
2022-09-07T10:01:24.602Z,2.28
2022-09-07T10:03:56.313Z,1.80
2022-09-07T10:06:25.402Z,2.10
2022-09-07T10:08:58.896Z,1.87
2022-09-07T10:14:37.234Z,1.90
2022-09-07T10:17:20.880Z,1.95
2022-09-07T10:19:50.609Z,1.50
2022-09-07T10:22:26.105Z,1.40
2022-09-07T10:24:53.906Z,1.70
2022-09-07T10:27:30.570Z,1.60
2022-09-07T10:29:59.447Z,1.85
2022-09-07T10:32:36.184Z,1.70
2022-09-07T10:35:12.440Z,1.65
2022-09-07T10:37:50.184Z,1.50
2022-09-07T10:40:26.040Z,2.05
2022-09-07T10:46:13.889Z,1.55
2022-09-07T10:48:47.868Z,1.88
2022-09-07T10:51:18.858Z,1.60
2022-09-07T10:56:51.559Z,1.30
2022-09-07T11:02:32.445Z,1.92
2022-09-07T11:05:08.342Z,1.50
2022-09-07T11:07:51.570Z,1.40
2022-09-07T11:10:30.638Z,1.52
2022-09-07T11:13:01.241Z,1.40
2022-09-07T11:15:32.518Z,1.40
2022-09-07T11:18:06.657Z,1.70
2022-09-07T11:20:38.781Z,1.65
2022-09-07T11:23:16.763Z,1.40
2022-09-07T11:25:53.645Z,1.95
2022-09-07T11:28:25.178Z,1.58
2022-09-07T11:31:00.301Z,1.50
2022-09-07T11:33:31.118Z,1.30
2022-09-07T11:36:04.596Z,1.20
2022-09-07T11:38:40.335Z,0.98
2022-09-07T11:41:24.679Z,1.40
2022-09-07T11:43:59.366Z,1.52
2022-09-07T11:46:33.650Z,1.38
2022-09-07T11:49:04.459Z,1.20
2022-09-07T11:51:41.088Z,1.73
2022-09-07T11:54:28.783Z,1.58
2022-09-07T11:57:01.568Z,1.30
2022-09-07T11:59:43.563Z,1.02
2022-09-07T12:02:57.829Z,1.50
2022-09-07T12:05:28.089Z,1.45
2022-09-07T12:08:31.407Z,1.40
2022-09-07T12:11:11.161Z,1.58
2022-09-07T12:14:12.373Z,1.33
2022-09-07T12:17:06.767Z,6.50
2022-09-07T12:19:34.704Z,5.93
2022-09-07T12:22:02.550Z,5.63
2022-09-07T12:24:40.869Z,2.83
2022-09-07T12:27:33.045Z,2.00
2022-09-07T12:30:51.869Z,2.13
2022-09-07T12:33:37.931Z,1.98
2022-09-07T12:36:39.098Z,1.38
2022-09-07T12:39:20.913Z,1.50
2022-09-07T12:42:31.840Z,1.33
2022-09-07T12:44:41.714Z,1.30
2022-09-07T12:47:29.159Z,1.30
2022-09-07T12:50:14.557Z,1.17
2022-09-07T12:53:18.428Z,1.40
2022-09-07T12:58:56.741Z,1.27
2022-09-07T13:01:36.410Z,1.38
2022-09-07T13:04:37.197Z,1.45
2022-09-07T13:07:34.792Z,1.42
2022-09-07T13:10:05.540Z,1.30
2022-09-07T13:12:54.680Z,1.60
2022-09-07T13:15:38.634Z,1.40
2022-09-07T13:18:12.555Z,1.10
2022-09-07T13:20:41.666Z,1.13
2022-09-07T13:23:31.297Z,1.33
2022-09-07T13:26:01.252Z,1.00
2022-09-07T13:28:42.678Z,1.23
2022-09-07T13:31:41.810Z,1.30
2022-09-07T13:34:41.044Z,0.90
2022-09-07T13:37:17.407Z,1.25
2022-09-07T13:39:47.870Z,1.10
2022-09-07T13:42:19.521Z,1.20
2022-09-07T13:44:55.322Z,1.17
2022-09-07T13:47:34.437Z,1.38
2022-09-07T13:50:16.711Z,1.40
2022-09-07T13:52:58.515Z,1.38
2022-09-07T13:55:31.454Z,1.88
2022-09-07T13:58:09.636Z,1.23
2022-09-07T14:00:37.531Z,1.20
2022-09-07T14:03:08.296Z,1.20
2022-09-07T14:05:37.514Z,1.00
2022-09-07T14:08:05.306Z,1.38
2022-09-07T14:10:33.610Z,1.17
2022-09-07T14:13:08.015Z,1.20
2022-09-07T14:15:39.238Z,1.17
2022-09-07T14:18:12.126Z,1.50
2022-09-07T14:20:44.633Z,1.52
2022-09-07T14:23:18.978Z,1.30
2022-09-07T14:28:39.397Z,1.00
2022-09-07T14:31:11.911Z,1.17
2022-09-07T14:33:43.686Z,1.10
2022-09-07T14:36:39.521Z,1.10
2022-09-07T14:39:04.718Z,1.10
2022-09-07T14:41:34.679Z,1.00
2022-09-07T14:44:02.975Z,1.20
2022-09-07T14:46:34.089Z,1.05
2022-09-07T14:49:04.363Z,0.95
2022-09-07T14:51:36.831Z,1.00
2022-09-07T14:54:07.233Z,1.20
2022-09-07T14:56:36.777Z,1.40
2022-09-07T14:59:27.184Z,1.08
2022-09-07T15:02:23.977Z,1.10
2022-09-07T15:05:20.358Z,0.90
2022-09-07T15:07:50.376Z,1.13
2022-09-07T15:10:29.358Z,1.42
2022-09-07T15:12:59.239Z,1.42
2022-09-07T15:15:28.988Z,1.40
2022-09-07T15:18:03.235Z,1.35
2022-09-07T15:20:41.006Z,1.40
2022-09-07T15:23:14.901Z,1.05
2022-09-07T15:25:48.222Z,1.15
2022-09-07T15:34:03.120Z,1.60
2022-09-07T15:36:31.995Z,1.00
2022-09-07T15:39:01.666Z,1.00
2022-09-07T15:41:30.863Z,1.25
2022-09-07T15:43:59.048Z,1.15
2022-09-07T15:46:27.143Z,1.02
2022-09-07T15:48:56.818Z,1.10
2022-09-07T15:54:15.537Z,1.10
2022-09-07T15:57:48.119Z,1.20
2022-09-07T16:02:00.022Z,1.10
2022-09-07T16:04:28.106Z,1.40
2022-09-07T16:06:55.917Z,1.30
2022-09-07T16:09:25.046Z,1.10
2022-09-07T16:11:54.052Z,0.80
2022-09-07T16:14:21.950Z,0.90
2022-09-07T16:19:41.078Z,1.25
2022-09-07T16:22:09.668Z,1.33
2022-09-07T16:24:39.023Z,1.58
2022-09-07T16:27:07.009Z,1.42
2022-09-07T16:29:34.801Z,1.20
2022-09-07T16:34:51.224Z,0.97
2022-09-07T16:37:19.180Z,1.40
2022-09-07T16:39:48.342Z,1.30
2022-09-07T16:42:16.115Z,1.20
2022-09-07T16:44:43.843Z,1.10
2022-09-07T16:47:12.728Z,1.08
2022-09-07T16:52:10.997Z,0.93
2022-09-07T16:54:38.819Z,0.93
2022-09-07T16:57:08.011Z,1.02
2022-09-07T16:59:35.754Z,1.00
2022-09-07T17:02:03.498Z,1.13
2022-09-07T17:04:31.312Z,1.15
2022-09-07T17:06:59.178Z,1.30
2022-09-07T17:09:28.609Z,0.80
2022-09-07T17:11:56.519Z,1.00
2022-09-07T17:14:25.659Z,1.05
2022-09-07T17:16:53.481Z,1.10
2022-09-07T17:19:29.684Z,1.52
2022-09-07T17:21:59.599Z,1.10
2022-09-07T17:24:27.446Z,1.15
2022-09-07T17:26:55.270Z,1.00
2022-09-07T17:29:23.027Z,1.25
2022-09-07T17:34:39.867Z,1.40
2022-09-07T17:37:09.100Z,1.17
2022-09-07T17:39:38.648Z,1.10
2022-09-07T17:42:06.745Z,1.00
2022-09-07T17:44:38.013Z,0.95
2022-09-07T17:47:07.645Z,1.20
2022-09-07T17:49:35.496Z,1.15
2022-09-07T17:52:03.699Z,1.02
2022-09-07T17:54:32.804Z,1.08
2022-09-07T17:57:00.682Z,1.10
2022-09-07T18:02:17.831Z,1.07
2022-09-07T18:04:45.710Z,1.10
2022-09-07T18:07:13.514Z,1.25
2022-09-07T18:09:41.280Z,1.23
2022-09-07T18:12:09.122Z,1.38
2022-09-07T18:14:37.131Z,1.30
2022-09-07T18:17:05.988Z,1.15
2022-09-07T18:19:36.325Z,1.13
2022-09-07T18:22:04.627Z,1.17
2022-09-07T18:24:32.527Z,1.63
2022-09-07T18:27:00.412Z,1.63
2022-09-07T18:29:32.209Z,1.30
2022-09-07T18:32:03.040Z,1.08
2022-09-07T18:34:31.922Z,1.10
2022-09-07T18:37:02.349Z,1.30
2022-09-07T18:39:30.989Z,1.33
2022-09-07T18:41:58.792Z,1.15
2022-09-07T18:47:22.358Z,1.30
2022-09-07T18:49:51.786Z,1.45
2022-09-07T18:55:10.416Z,1.48
2022-09-07T18:57:38.462Z,2.08
2022-09-07T19:00:08.914Z,1.80
2022-09-07T19:02:36.924Z,1.63
2022-09-07T19:07:54.763Z,1.35
2022-09-07T19:10:23.024Z,1.65
2022-09-07T19:12:50.854Z,1.33
2022-09-07T19:15:20.388Z,1.45
2022-09-07T19:17:48.217Z,1.60
2022-09-07T19:20:16.054Z,1.40
2022-09-07T19:22:43.878Z,1.80
2022-09-07T19:25:13.268Z,1.80
2022-09-07T19:27:41.077Z,2.00
2022-09-07T19:30:10.186Z,2.05
2022-09-07T19:35:06.363Z,2.00
2022-09-07T19:37:34.203Z,1.70
2022-09-07T19:40:02.187Z,1.40
2022-09-07T19:42:31.809Z,1.30
2022-09-07T19:45:00.036Z,3.38
2022-09-07T19:47:27.806Z,1.93
2022-09-07T19:49:55.597Z,1.55
2022-09-07T19:52:23.338Z,1.77
2022-09-07T19:54:51.089Z,1.48
2022-09-07T19:57:18.843Z,1.70
2022-09-07T19:59:48.649Z,1.80
2022-09-07T20:02:16.475Z,1.45
2022-09-07T20:04:44.341Z,1.77
2022-09-07T20:07:13.219Z,1.40
2022-09-07T20:09:41.058Z,1.80
2022-09-07T20:12:09.680Z,2.50
2022-09-07T20:14:37.458Z,1.83
2022-09-07T20:17:06.807Z,1.45
2022-09-07T20:19:34.650Z,1.90
2022-09-07T20:22:02.498Z,1.67
2022-09-07T20:24:30.272Z,1.52
2022-09-07T20:26:58.098Z,1.80
2022-09-07T20:29:28.637Z,2.00
2022-09-07T20:31:57.638Z,2.00
2022-09-07T20:34:27.250Z,1.90
2022-09-07T20:36:56.780Z,1.80
2022-09-07T20:39:25.132Z,1.92
2022-09-07T20:41:53.023Z,1.88
2022-09-07T20:44:20.968Z,1.80
2022-09-07T20:46:49.089Z,1.70
2022-09-07T20:49:17.128Z,1.60
2022-09-07T20:51:46.746Z,1.92
2022-09-07T20:54:14.921Z,1.70
2022-09-07T20:56:42.820Z,2.20
2022-09-07T20:59:12.121Z,1.70
2022-09-07T21:01:39.993Z,1.70
2022-09-07T21:04:07.978Z,1.70
2022-09-07T21:06:35.975Z,1.77
2022-09-07T21:09:05.515Z,1.80
2022-09-07T21:11:35.198Z,1.33
2022-09-07T21:14:06.115Z,2.22
2022-09-07T21:16:34.655Z,1.48
2022-09-07T21:19:04.459Z,1.60
2022-09-07T21:21:39.494Z,2.20
2022-09-07T21:24:16.771Z,1.90
2022-09-07T21:26:44.620Z,1.88
2022-09-07T21:29:18.605Z,1.58
2022-09-07T21:31:46.546Z,1.90
2022-09-07T21:34:14.761Z,2.35
2022-09-07T21:36:42.634Z,2.00
2022-09-07T21:39:14.510Z,1.77
2022-09-07T21:41:43.553Z,1.50
2022-09-07T21:44:13.700Z,1.73
2022-09-07T21:46:42.186Z,1.63
2022-09-07T21:49:10.190Z,1.83
2022-09-07T21:51:38.134Z,1.90
2022-09-07T21:54:06.030Z,1.50
2022-09-07T21:56:35.425Z,1.50
2022-09-07T21:59:04.136Z,1.65
2022-09-07T22:01:32.923Z,1.67
2022-09-07T22:04:02.744Z,1.63
2022-09-07T22:06:32.300Z,1.73
2022-09-07T22:09:00.880Z,1.70
2022-09-07T22:11:29.812Z,2.10
2022-09-07T22:14:01.719Z,1.88
2022-09-07T22:16:29.588Z,2.03
2022-09-07T22:18:57.426Z,1.63
2022-09-07T22:21:26.514Z,1.85
2022-09-07T22:26:25.868Z,1.55
2022-09-07T22:28:53.919Z,1.50
2022-09-07T22:31:24.890Z,1.77
2022-09-07T22:33:54.045Z,1.75
2022-09-07T22:38:51.680Z,1.60
2022-09-07T22:43:50.775Z,1.73
2022-09-07T22:46:19.820Z,1.50
2022-09-07T22:51:17.709Z,1.58
2022-09-07T22:53:45.667Z,1.67
2022-09-07T22:56:15.524Z,1.63
2022-09-07T22:58:46.723Z,1.73
2022-09-07T23:01:14.925Z,1.60
2022-09-07T23:03:44.190Z,1.63
2022-09-07T23:06:21.341Z,2.00
2022-09-07T23:08:49.207Z,1.65
2022-09-07T23:11:17.394Z,2.40
2022-09-07T23:13:45.336Z,1.53
2022-09-07T23:16:13.361Z,1.80
2022-09-07T23:18:41.694Z,1.50
2022-09-07T23:21:09.552Z,1.50
2022-09-07T23:23:38.849Z,1.70
2022-09-07T23:26:07.078Z,1.60
2022-09-07T23:28:34.958Z,1.83
2022-09-07T23:31:03.160Z,1.70
2022-09-07T23:33:31.615Z,1.77
2022-09-07T23:36:01.314Z,1.80
2022-09-07T23:38:29.910Z,1.75
2022-09-07T23:41:00.190Z,1.60
2022-09-07T23:43:30.202Z,1.65
2022-09-07T23:45:59.513Z,1.58
2022-09-07T23:48:27.692Z,1.80
2022-09-07T23:50:55.898Z,1.42
2022-09-07T23:53:24.086Z,1.57
2022-09-07T23:55:53.476Z,1.70
2022-09-07T23:58:23.532Z,1.80
